createdAt,value
2023-12-27T00:02:00.246Z,100134.59
2023-12-27T00:04:27.975Z,100128.34
2023-12-27T00:06:58.522Z,100131.03
2023-12-27T00:09:26.034Z,100132.44
2023-12-27T00:11:53.864Z,100131.28
2023-12-27T00:14:21.516Z,100142.78
2023-12-27T00:16:48.928Z,100147.62
2023-12-27T00:19:16.758Z,100141.28
2023-12-27T00:21:44.400Z,100140.66
2023-12-27T00:24:11.843Z,100146.97
2023-12-27T00:26:39.694Z,100149.37
2023-12-27T00:29:07.133Z,100149.06
2023-12-27T00:31:34.778Z,100154.66
2023-12-27T00:34:02.707Z,100162.19
2023-12-27T00:36:31.609Z,100161.91
2023-12-27T00:39:00.993Z,100162.59
2023-12-27T00:41:29.207Z,100164.41
2023-12-27T00:43:56.701Z,100168.72
2023-12-27T00:46:25.011Z,100175.59
2023-12-27T00:48:52.901Z,100178.09
2023-12-27T00:51:20.911Z,100179.37
2023-12-27T00:53:49.520Z,100179.06
2023-12-27T00:56:17.238Z,100184.34
2023-12-27T00:58:44.678Z,100195.47
2023-12-27T01:01:13.075Z,100194.91
2023-12-27T01:03:41.685Z,100193.25
2023-12-27T01:06:10.661Z,100190.63
2023-12-27T01:08:38.407Z,100201.47
2023-12-27T01:11:06.334Z,100220.09
2023-12-27T01:13:33.818Z,100224.09
2023-12-27T01:16:01.430Z,100219.44
2023-12-27T01:18:29.292Z,100223.06
2023-12-27T01:20:57.081Z,100230.56
2023-12-27T01:23:24.530Z,100232.66
2023-12-27T01:25:52.237Z,100234.22
2023-12-27T01:28:19.906Z,100246.66
2023-12-27T01:30:47.454Z,100246.16
2023-12-27T01:33:15.358Z,100249.59
2023-12-27T01:35:42.901Z,100251.63
2023-12-27T01:38:10.310Z,100254.13
2023-12-27T01:40:38.081Z,100248.56
2023-12-27T01:43:05.497Z,100260.97
2023-12-27T01:45:32.955Z,100248.22
2023-12-27T01:48:01.008Z,100250.63
2023-12-27T01:50:28.781Z,100251.16
2023-12-27T01:52:56.284Z,100249.12
2023-12-27T01:55:23.972Z,100248.09
2023-12-27T01:57:51.405Z,100247.91
2023-12-27T02:00:19.031Z,100239.06
2023-12-27T02:02:46.370Z,100242.53
2023-12-27T02:05:14.054Z,100244.94
2023-12-27T02:07:41.539Z,100242.50
2023-12-27T02:10:09.163Z,100242.78
2023-12-27T02:12:37.106Z,100246.78
2023-12-27T02:15:05.528Z,100248.00
2023-12-27T02:17:34.021Z,100253.22
2023-12-27T02:20:01.857Z,100256.28
2023-12-27T02:22:29.574Z,100253.91
2023-12-27T02:24:57.001Z,100276.97
2023-12-27T02:27:24.492Z,100256.03
2023-12-27T02:29:52.198Z,100269.34
2023-12-27T02:32:19.603Z,100277.00
2023-12-27T02:34:47.222Z,100276.41
2023-12-27T02:37:14.972Z,100268.75
2023-12-27T02:39:42.342Z,100278.00
2023-12-27T02:42:09.886Z,100268.53
2023-12-27T02:44:37.562Z,100267.25
2023-12-27T02:47:04.982Z,100261.78
2023-12-27T02:49:32.456Z,100266.25
2023-12-27T02:52:00.205Z,100261.97
2023-12-27T02:54:27.631Z,100264.22
2023-12-27T02:56:55.141Z,100265.72
2023-12-27T02:59:22.817Z,100272.50
2023-12-27T03:01:50.573Z,100275.88
2023-12-27T03:04:18.019Z,100284.66
2023-12-27T03:06:45.693Z,100284.47
2023-12-27T03:09:13.536Z,100288.00
2023-12-27T03:11:40.961Z,100292.13
2023-12-27T03:14:08.673Z,100294.94
2023-12-27T03:16:36.165Z,100295.66
2023-12-27T03:19:03.796Z,100292.84
2023-12-27T03:21:31.615Z,100304.97
2023-12-27T03:23:59.163Z,100306.41
2023-12-27T03:26:26.581Z,100305.06
2023-12-27T03:28:54.303Z,100318.69
2023-12-27T03:31:21.722Z,100311.41
2023-12-27T03:33:49.296Z,100317.78
2023-12-27T03:36:17.191Z,100312.16
2023-12-27T03:38:44.631Z,100314.28
2023-12-27T03:41:12.031Z,100316.34
2023-12-27T03:43:40.139Z,100320.47
2023-12-27T03:46:07.522Z,100322.03
2023-12-27T03:48:35.889Z,100323.62
2023-12-27T03:51:04.220Z,100335.25
2023-12-27T03:53:32.602Z,100334.19
2023-12-27T03:55:59.986Z,100341.91
2023-12-27T03:58:27.670Z,100343.59
2023-12-27T04:00:56.250Z,100354.91
2023-12-27T04:03:24.224Z,100347.97
2023-12-27T04:05:51.765Z,100352.63
2023-12-27T04:08:19.210Z,100349.06
2023-12-27T04:10:46.862Z,100340.72
2023-12-27T04:13:14.284Z,100349.56
2023-12-27T04:15:41.871Z,100347.22
2023-12-27T04:18:12.737Z,100339.72
2023-12-27T04:20:40.175Z,100340.19
2023-12-27T04:23:07.580Z,100348.66
2023-12-27T04:25:35.300Z,100353.13
2023-12-27T04:28:03.414Z,100351.41
2023-12-27T04:30:30.998Z,100364.84
2023-12-27T04:32:59.117Z,100368.03
2023-12-27T04:35:26.644Z,100359.09
2023-12-27T04:37:54.109Z,100367.97
2023-12-27T04:40:23.482Z,100366.06
2023-12-27T04:42:50.906Z,100359.94
2023-12-27T04:45:18.356Z,100363.06
2023-12-27T04:47:46.116Z,100373.84
2023-12-27T04:50:15.676Z,100379.41
2023-12-27T04:52:43.385Z,100390.06
2023-12-27T04:55:11.025Z,100391.03
2023-12-27T04:57:38.922Z,100395.88
2023-12-27T05:00:08.686Z,100394.19
2023-12-27T05:02:36.434Z,100401.19
2023-12-27T05:05:04.470Z,100407.59
2023-12-27T05:07:32.167Z,100399.81
2023-12-27T05:09:59.830Z,100408.22
2023-12-27T05:12:27.235Z,100402.56
2023-12-27T05:14:54.654Z,100407.16
2023-12-27T05:17:23.033Z,100416.06
2023-12-27T05:19:50.438Z,100419.31
2023-12-27T05:22:18.460Z,100421.66
2023-12-27T05:24:46.192Z,100416.22
2023-12-27T05:27:13.642Z,100422.72
2023-12-27T05:29:41.392Z,100426.00
2023-12-27T05:32:09.074Z,100431.97
2023-12-27T05:34:36.768Z,100436.72
2023-12-27T05:37:04.324Z,100432.94
2023-12-27T05:39:32.175Z,100437.72
2023-12-27T05:41:59.627Z,100429.22
2023-12-27T05:44:27.082Z,100440.87
2023-12-27T05:46:54.749Z,100441.16
2023-12-27T05:49:22.339Z,100444.06
2023-12-27T05:51:49.801Z,100441.19
2023-12-27T05:54:19.212Z,100447.72
2023-12-27T05:56:46.659Z,100451.03
2023-12-27T05:59:14.315Z,100459.06
2023-12-27T06:01:48.898Z,100460.87
2023-12-27T06:04:16.648Z,100463.34
2023-12-27T06:06:45.144Z,100461.03
2023-12-27T06:09:12.590Z,100462.69
2023-12-27T06:11:40.302Z,100467.97
2023-12-27T06:14:08.720Z,100479.94
2023-12-27T06:16:36.140Z,100478.63
2023-12-27T06:19:04.045Z,100482.31
2023-12-27T06:21:31.559Z,100480.06
2023-12-27T06:23:59.019Z,100492.78
2023-12-27T06:26:26.695Z,100493.69
2023-12-27T06:28:54.081Z,100494.72
2023-12-27T06:31:21.584Z,100504.63
2023-12-27T06:33:49.412Z,100512.28
2023-12-27T06:36:16.994Z,100514.25
2023-12-27T06:38:47.307Z,100516.88
2023-12-27T06:41:17.573Z,100529.81
2023-12-27T06:43:45.352Z,100530.66
2023-12-27T06:46:12.804Z,100553.09
2023-12-27T06:48:40.675Z,100548.16
2023-12-27T06:51:08.936Z,100564.66
2023-12-27T06:53:36.756Z,100567.50
2023-12-27T06:56:04.675Z,100572.53
2023-12-27T06:58:32.092Z,100577.94
2023-12-27T07:00:59.633Z,100585.63
2023-12-27T07:03:27.414Z,100588.72
2023-12-27T07:05:55.009Z,100593.28
2023-12-27T07:08:22.455Z,100589.56
2023-12-27T07:10:50.122Z,100582.63
2023-12-27T07:13:17.506Z,100579.22
2023-12-27T07:15:45.031Z,100580.81
2023-12-27T07:18:12.854Z,100586.75
2023-12-27T07:20:40.319Z,100579.56
2023-12-27T07:23:07.725Z,100603.13
2023-12-27T07:25:35.597Z,100604.94
2023-12-27T07:28:03.056Z,100619.41
2023-12-27T07:30:30.499Z,100620.72
2023-12-27T07:32:58.415Z,100621.34
2023-12-27T07:35:27.034Z,100620.78
2023-12-27T07:37:54.548Z,100611.84
2023-12-27T07:40:22.297Z,100616.34
2023-12-27T07:42:50.048Z,100626.63
2023-12-27T07:45:19.522Z,100629.06
2023-12-27T07:47:47.382Z,100639.56
2023-12-27T07:50:14.903Z,100634.44
2023-12-27T07:52:43.304Z,100639.88
2023-12-27T07:55:11.959Z,100640.59
2023-12-27T07:57:39.483Z,100641.16
2023-12-27T08:00:08.555Z,100645.19
2023-12-27T08:02:39.666Z,100650.50
2023-12-27T08:05:08.208Z,100658.28
2023-12-27T08:07:35.652Z,100663.31
2023-12-27T08:10:03.264Z,100666.69
2023-12-27T08:12:32.196Z,100664.72
2023-12-27T08:14:59.579Z,100669.75
2023-12-27T08:17:27.889Z,100665.09
2023-12-27T08:19:55.703Z,100662.22
2023-12-27T08:22:23.180Z,100657.22
2023-12-27T08:24:50.623Z,100659.38
2023-12-27T08:27:18.594Z,100666.53
2023-12-27T08:29:46.008Z,100678.34
2023-12-27T08:32:13.546Z,100686.41
2023-12-27T08:34:41.269Z,100678.97
2023-12-27T08:37:08.713Z,100682.16
2023-12-27T08:39:36.187Z,100689.03
2023-12-27T08:42:04.144Z,100701.03
2023-12-27T08:44:31.763Z,100703.81
2023-12-27T08:46:59.143Z,100720.91
2023-12-27T08:49:26.931Z,100717.31
2023-12-27T08:51:54.403Z,100721.09
2023-12-27T08:54:21.875Z,100735.28
2023-12-27T08:56:49.605Z,100715.41
2023-12-27T08:59:16.991Z,100717.06
2023-12-27T09:01:44.405Z,100720.97
2023-12-27T09:04:12.230Z,100728.09
2023-12-27T09:06:39.834Z,100740.09
2023-12-27T09:09:07.712Z,100753.72
2023-12-27T09:11:41.336Z,100748.44
2023-12-27T09:14:11.239Z,100738.69
2023-12-27T09:16:38.973Z,100737.84
2023-12-27T09:19:06.620Z,100752.53
2023-12-27T09:21:34.438Z,100735.41
2023-12-27T09:24:02.433Z,100734.56
2023-12-27T09:26:30.793Z,100738.28
2023-12-27T09:28:58.190Z,100751.84
2023-12-27T09:31:30.551Z,100743.84
2023-12-27T09:34:00.915Z,100751.78
2023-12-27T09:36:28.965Z,100756.72
2023-12-27T09:38:56.387Z,100761.88
2023-12-27T09:41:23.865Z,100760.62
2023-12-27T09:43:53.059Z,100748.56
2023-12-27T09:46:20.478Z,100751.41
2023-12-27T09:48:48.181Z,100741.91
2023-12-27T09:51:23.851Z,100751.94
2023-12-27T09:53:51.908Z,100753.47
2023-12-27T09:56:19.942Z,100762.97
2023-12-27T09:58:54.808Z,100755.03
2023-12-27T10:01:24.776Z,100747.50
2023-12-27T10:04:04.888Z,100755.03
2023-12-27T10:06:48.988Z,100745.97
2023-12-27T10:09:17.931Z,100737.69
2023-12-27T10:11:45.985Z,100738.63
2023-12-27T10:14:14.330Z,100738.87
2023-12-27T10:16:42.096Z,100742.00
2023-12-27T10:19:09.994Z,100735.63
2023-12-27T10:21:44.370Z,100743.00
2023-12-27T10:24:12.210Z,100744.28
2023-12-27T10:26:39.732Z,100732.53
2023-12-27T10:29:09.166Z,100737.00
2023-12-27T10:31:37.839Z,100751.06
2023-12-27T10:34:07.127Z,100745.94
2023-12-27T10:36:39.430Z,100743.00
2023-12-27T10:39:07.919Z,100746.31
2023-12-27T10:41:35.432Z,100759.63
2023-12-27T10:44:05.415Z,100750.97
2023-12-27T10:46:33.512Z,100750.69
2023-12-27T10:49:03.270Z,100751.97
2023-12-27T10:51:31.154Z,100753.50
2023-12-27T10:54:02.009Z,100752.94
2023-12-27T10:56:29.411Z,100749.41
2023-12-27T10:58:56.847Z,100752.31
2023-12-27T11:01:25.017Z,100740.44
2023-12-27T11:03:52.498Z,100742.09
2023-12-27T11:06:20.347Z,100745.97
2023-12-27T11:08:48.058Z,100733.94
2023-12-27T11:11:15.593Z,100724.72
2023-12-27T11:13:43.002Z,100719.84
2023-12-27T11:16:10.791Z,100722.25
2023-12-27T11:18:38.461Z,100711.16
2023-12-27T11:21:06.008Z,100703.78
2023-12-27T11:23:33.685Z,100714.03
2023-12-27T11:26:01.529Z,100699.72
2023-12-27T11:28:29.380Z,100697.91
2023-12-27T11:30:57.202Z,100697.59
2023-12-27T11:33:25.509Z,100698.34
2023-12-27T11:35:53.706Z,100699.13
2023-12-27T11:38:24.058Z,100695.22
2023-12-27T11:41:00.370Z,100689.50
2023-12-27T11:43:28.327Z,100689.13
2023-12-27T11:46:02.368Z,100697.31
2023-12-27T11:48:34.405Z,100692.97
2023-12-27T11:51:02.010Z,100696.00
2023-12-27T11:53:32.571Z,100696.94
2023-12-27T11:56:00.405Z,100690.63
2023-12-27T11:58:32.759Z,100681.19
2023-12-27T12:01:31.720Z,100676.63
2023-12-27T12:04:08.396Z,100674.66
2023-12-27T12:06:53.782Z,100666.75
2023-12-27T12:09:33.215Z,100661.66
2023-12-27T12:12:11.587Z,100672.75
2023-12-27T12:14:39.611Z,100668.81
2023-12-27T12:17:08.234Z,100680.28
2023-12-27T12:19:37.086Z,100666.12
2023-12-27T12:22:05.117Z,100679.09
2023-12-27T12:24:34.070Z,100667.00
2023-12-27T12:27:02.001Z,100672.56
2023-12-27T12:29:30.282Z,100679.72
2023-12-27T12:31:57.810Z,100669.66
2023-12-27T12:34:25.645Z,100662.69
2023-12-27T12:36:53.555Z,100656.78
2023-12-27T12:39:21.189Z,100655.59
2023-12-27T12:41:48.707Z,100661.66
2023-12-27T12:44:16.764Z,100667.72
2023-12-27T12:46:44.293Z,100671.06
2023-12-27T12:49:11.909Z,100672.75
2023-12-27T12:51:39.707Z,100668.31
2023-12-27T12:54:08.866Z,100666.81
2023-12-27T12:56:40.572Z,100660.97
2023-12-27T12:59:09.065Z,100654.88
2023-12-27T13:01:36.691Z,100655.97
2023-12-27T13:04:06.378Z,100647.09
2023-12-27T13:06:35.802Z,100642.94
2023-12-27T13:09:04.628Z,100641.59
2023-12-27T13:11:35.517Z,100636.59
2023-12-27T13:14:03.291Z,100626.91
2023-12-27T13:16:30.683Z,100630.16
2023-12-27T13:19:01.496Z,100631.53
2023-12-27T13:21:30.365Z,100633.91
2023-12-27T13:23:57.812Z,100637.59
2023-12-27T13:26:25.288Z,100639.59
2023-12-27T13:28:53.091Z,100640.59
2023-12-27T13:31:21.111Z,100636.94
2023-12-27T13:33:49.309Z,100635.94
2023-12-27T13:36:17.777Z,100637.47
2023-12-27T13:38:45.374Z,100638.09
2023-12-27T13:41:12.789Z,100638.69
2023-12-27T13:43:41.032Z,100639.16
2023-12-27T13:46:08.674Z,100641.41
2023-12-27T13:48:36.240Z,100648.19
2023-12-27T13:51:04.146Z,100648.25
2023-12-27T13:53:31.616Z,100648.06
2023-12-27T13:55:59.084Z,100642.66
2023-12-27T13:58:26.814Z,100647.84
2023-12-27T14:00:54.262Z,100642.66
2023-12-27T14:03:22.052Z,100644.28
2023-12-27T14:05:49.537Z,100640.41
2023-12-27T14:08:16.987Z,100643.41
2023-12-27T14:10:45.721Z,100646.19
2023-12-27T14:13:13.090Z,100647.78
2023-12-27T14:15:40.566Z,100652.44
2023-12-27T14:18:11.482Z,100641.97
2023-12-27T14:20:40.709Z,100656.19
2023-12-27T14:23:09.309Z,100657.03
2023-12-27T14:25:36.872Z,100657.47
2023-12-27T14:28:04.644Z,100658.63
2023-12-27T14:30:33.090Z,100653.97
2023-12-27T14:33:00.811Z,100652.22
2023-12-27T14:35:28.816Z,100655.25
2023-12-27T14:37:56.886Z,100653.38
2023-12-27T14:40:26.687Z,100659.44
2023-12-27T14:42:54.398Z,100657.78
2023-12-27T14:45:22.397Z,100652.09
2023-12-27T14:47:49.857Z,100651.88
2023-12-27T14:50:17.282Z,100652.00
2023-12-27T14:52:44.967Z,100649.34
2023-12-27T14:55:12.485Z,100637.75
2023-12-27T14:57:39.992Z,100646.28
2023-12-27T15:00:08.135Z,100658.22
2023-12-27T15:02:35.646Z,100659.41
2023-12-27T15:05:03.438Z,100643.59
2023-12-27T15:07:31.108Z,100650.50
2023-12-27T15:09:58.539Z,100662.41
2023-12-27T15:12:26.531Z,100659.84
2023-12-27T15:14:56.869Z,100664.88
2023-12-27T15:17:25.581Z,100659.16
2023-12-27T15:19:53.046Z,100655.62
2023-12-27T15:22:20.753Z,100659.69
2023-12-27T15:24:48.255Z,100652.56
2023-12-27T15:27:16.385Z,100651.84
2023-12-27T15:29:44.677Z,100655.06
2023-12-27T15:32:12.071Z,100653.84
2023-12-27T15:34:43.225Z,100655.72
2023-12-27T15:37:11.316Z,100659.31
2023-12-27T15:39:38.798Z,100662.12
2023-12-27T15:42:06.312Z,100660.34
2023-12-27T15:44:34.004Z,100650.13
2023-12-27T15:47:02.558Z,100658.78
2023-12-27T15:49:30.200Z,100653.75
2023-12-27T15:51:58.737Z,100642.88
2023-12-27T15:54:26.205Z,100639.22
2023-12-27T15:56:55.400Z,100640.06
2023-12-27T15:59:23.201Z,100632.34
2023-12-27T16:01:51.065Z,100641.84
2023-12-27T16:04:19.407Z,100647.00
2023-12-27T16:06:47.229Z,100642.25
2023-12-27T16:09:15.036Z,100640.13
2023-12-27T16:11:46.345Z,100626.91
2023-12-27T16:14:13.971Z,100644.66
2023-12-27T16:16:44.337Z,100639.75
2023-12-27T16:19:12.433Z,100633.63
2023-12-27T16:21:40.189Z,100637.66
2023-12-27T16:24:07.875Z,100639.34
2023-12-27T16:26:35.634Z,100640.72
2023-12-27T16:29:03.051Z,100641.16
2023-12-27T16:31:30.544Z,100635.41
2023-12-27T16:33:58.371Z,100631.78
2023-12-27T16:36:26.470Z,100631.50
2023-12-27T16:38:55.383Z,100636.53
2023-12-27T16:41:23.301Z,100646.81
2023-12-27T16:43:50.926Z,100653.87
2023-12-27T16:46:18.593Z,100644.63
2023-12-27T16:48:48.300Z,100644.47
2023-12-27T16:51:17.311Z,100640.44
2023-12-27T16:53:44.776Z,100639.88
2023-12-27T16:56:18.538Z,100647.37
2023-12-27T16:58:47.861Z,100645.34
2023-12-27T17:01:15.623Z,100646.13
2023-12-27T17:03:43.353Z,100648.91
2023-12-27T17:06:11.549Z,100655.66
2023-12-27T17:08:39.380Z,100655.19
2023-12-27T17:11:06.953Z,100652.59
2023-12-27T17:13:34.394Z,100658.38
2023-12-27T17:16:02.062Z,100658.31
2023-12-27T17:18:31.641Z,100661.38
2023-12-27T17:20:59.296Z,100660.53
2023-12-27T17:23:26.949Z,100665.56
2023-12-27T17:25:55.497Z,100665.47
2023-12-27T17:28:22.925Z,100670.25
2023-12-27T17:30:50.753Z,100665.19
2023-12-27T17:33:18.329Z,100675.09
2023-12-27T17:35:49.143Z,100668.28
2023-12-27T17:38:16.934Z,100675.25
2023-12-27T17:40:45.785Z,100675.44
2023-12-27T17:43:13.413Z,100688.66
2023-12-27T17:45:41.104Z,100689.78
2023-12-27T17:48:08.955Z,100681.75
2023-12-27T17:50:38.976Z,100692.59
2023-12-27T17:53:06.651Z,100693.25
2023-12-27T17:55:35.479Z,100683.53
2023-12-27T17:58:02.912Z,100681.84
2023-12-27T18:00:30.584Z,100688.81
2023-12-27T18:02:58.379Z,100692.47
2023-12-27T18:05:30.566Z,100690.25
2023-12-27T18:07:58.258Z,100700.91
2023-12-27T18:10:26.199Z,100705.53
2023-12-27T18:12:53.781Z,100711.09
2023-12-27T18:15:21.727Z,100700.66
2023-12-27T18:17:49.293Z,100700.25
2023-12-27T18:20:16.751Z,100705.41
2023-12-27T18:22:44.423Z,100700.84
2023-12-27T18:25:12.366Z,100698.59
2023-12-27T18:27:39.923Z,100702.88
2023-12-27T18:30:08.636Z,100694.25
2023-12-27T18:32:36.196Z,100699.00
2023-12-27T18:35:04.961Z,100688.44
2023-12-27T18:37:32.804Z,100689.78
2023-12-27T18:40:00.395Z,100693.03
2023-12-27T18:42:27.980Z,100686.69
2023-12-27T18:44:55.692Z,100680.03
2023-12-27T18:47:23.141Z,100687.16
2023-12-27T18:49:50.694Z,100683.81
2023-12-27T18:52:18.459Z,100671.56
2023-12-27T18:54:45.938Z,100664.84
2023-12-27T18:57:14.206Z,100651.03
2023-12-27T18:59:41.946Z,100650.44
2023-12-27T19:02:09.387Z,100652.94
2023-12-27T19:04:37.413Z,100660.53
2023-12-27T19:07:05.221Z,100659.47
2023-12-27T19:09:33.978Z,100662.53
2023-12-27T19:12:02.079Z,100665.91
2023-12-27T19:14:29.941Z,100661.94
2023-12-27T19:16:57.387Z,100657.94
2023-12-27T19:19:25.497Z,100655.34
2023-12-27T19:21:57.405Z,100666.97
2023-12-27T19:24:25.039Z,100664.69
2023-12-27T19:26:54.981Z,100666.16
2023-12-27T19:29:22.870Z,100677.81
2023-12-27T19:31:50.370Z,100666.78
2023-12-27T19:34:18.152Z,100663.81
2023-12-27T19:36:45.649Z,100670.87
2023-12-27T19:39:13.166Z,100673.09
2023-12-27T19:41:40.870Z,100664.13
2023-12-27T19:44:08.472Z,100669.28
2023-12-27T19:46:35.876Z,100671.97
2023-12-27T19:49:03.799Z,100678.97
2023-12-27T19:51:31.455Z,100676.41
2023-12-27T19:53:58.888Z,100679.84
2023-12-27T19:56:26.538Z,100682.53
2023-12-27T19:58:54.123Z,100669.22
2023-12-27T20:01:25.795Z,100670.38
2023-12-27T20:03:53.598Z,100668.78
2023-12-27T20:06:21.082Z,100664.81
2023-12-27T20:08:48.531Z,100664.37
2023-12-27T20:11:16.420Z,100667.53
2023-12-27T20:13:44.208Z,100671.03
2023-12-27T20:16:11.705Z,100670.69
2023-12-27T20:18:39.552Z,100670.34
2023-12-27T20:21:07.353Z,100665.00
2023-12-27T20:23:39.733Z,100668.03
2023-12-27T20:26:07.711Z,100666.78
2023-12-27T20:28:36.723Z,100678.81
2023-12-27T20:31:05.230Z,100682.78
2023-12-27T20:33:34.274Z,100675.00
2023-12-27T20:36:03.143Z,100672.06
2023-12-27T20:38:30.630Z,100669.84
2023-12-27T20:40:58.321Z,100672.88
2023-12-27T20:43:25.740Z,100669.72
2023-12-27T20:45:53.249Z,100665.50
2023-12-27T20:48:24.243Z,100674.06
2023-12-27T20:50:52.382Z,100661.63
2023-12-27T20:53:19.836Z,100663.44
2023-12-27T20:55:47.532Z,100661.06
2023-12-27T20:58:14.972Z,100664.75
2023-12-27T21:00:42.547Z,100652.41
2023-12-27T21:03:10.480Z,100656.47
2023-12-27T21:05:38.533Z,100656.34
2023-12-27T21:08:06.441Z,100661.25
2023-12-27T21:10:34.156Z,100655.47
2023-12-27T21:13:01.632Z,100656.63
2023-12-27T21:15:29.157Z,100654.66
2023-12-27T21:17:57.178Z,100651.75
2023-12-27T21:20:24.854Z,100661.28
2023-12-27T21:22:52.271Z,100664.53
2023-12-27T21:25:20.055Z,100661.75
2023-12-27T21:27:47.523Z,100662.34
2023-12-27T21:30:15.310Z,100667.87
2023-12-27T21:32:48.932Z,100666.56
2023-12-27T21:35:16.562Z,100678.25
2023-12-27T21:37:44.264Z,100678.53
2023-12-27T21:40:11.785Z,100668.00
2023-12-27T21:42:39.181Z,100656.72
2023-12-27T21:45:07.435Z,100663.75
2023-12-27T21:47:34.969Z,100656.72
2023-12-27T21:50:02.769Z,100659.69
2023-12-27T21:52:30.714Z,100673.19
2023-12-27T21:54:58.163Z,100675.34
2023-12-27T21:57:25.608Z,100667.56
2023-12-27T21:59:53.323Z,100660.28
2023-12-27T22:02:20.783Z,100663.75
2023-12-27T22:04:48.474Z,100653.31
2023-12-27T22:07:16.766Z,100651.47
2023-12-27T22:09:44.547Z,100646.03
2023-12-27T22:12:12.331Z,100649.94
2023-12-27T22:14:39.773Z,100657.31
2023-12-27T22:17:07.164Z,100644.41
2023-12-27T22:19:36.538Z,100637.37
2023-12-27T22:22:04.346Z,100644.50
2023-12-27T22:24:31.808Z,100645.75
2023-12-27T22:26:59.466Z,100635.16
2023-12-27T22:29:26.945Z,100647.78
2023-12-27T22:31:54.576Z,100632.91
2023-12-27T22:34:22.525Z,100633.97
2023-12-27T22:36:50.180Z,100628.16
2023-12-27T22:39:18.604Z,100629.31
2023-12-27T22:41:46.319Z,100628.28
2023-12-27T22:44:13.745Z,100627.09
2023-12-27T22:46:41.186Z,100628.47
2023-12-27T22:49:08.987Z,100625.09
2023-12-27T22:51:36.509Z,100628.28
2023-12-27T22:54:03.971Z,100633.56
2023-12-27T22:56:31.668Z,100636.59
2023-12-27T22:58:59.221Z,100633.75
2023-12-27T23:01:26.635Z,100629.12
2023-12-27T23:03:54.776Z,100617.31
2023-12-27T23:06:22.791Z,100631.97
2023-12-27T23:08:50.656Z,100609.81
2023-12-27T23:11:18.297Z,100612.19
2023-12-27T23:13:45.682Z,100610.22
2023-12-27T23:16:13.086Z,100616.66
2023-12-27T23:18:40.961Z,100618.53
2023-12-27T23:21:08.811Z,100623.31
2023-12-27T23:23:36.199Z,100616.72
2023-12-27T23:26:03.895Z,100621.06
2023-12-27T23:28:31.337Z,100608.41
2023-12-27T23:30:58.887Z,100617.63
2023-12-27T23:33:27.004Z,100616.84
2023-12-27T23:35:54.648Z,100629.09
2023-12-27T23:38:22.060Z,100619.97
2023-12-27T23:40:49.694Z,100615.28
2023-12-27T23:43:17.061Z,100622.06
2023-12-27T23:45:44.681Z,100629.81
2023-12-27T23:48:12.517Z,100621.66
2023-12-27T23:50:40.172Z,100622.66
2023-12-27T23:53:07.584Z,100624.69
2023-12-27T23:55:35.245Z,100623.97
2023-12-27T23:58:03.001Z,100623.72
